sensor_id;sensor_type;location;lat;lon;timestamp;temperature;humidity
41395;DHT22;27136;53.810;8.886;2022-07-29T00:01:06;15.70;99.90
41395;DHT22;27136;53.810;8.886;2022-07-29T00:03:32;15.70;99.90
41395;DHT22;27136;53.810;8.886;2022-07-29T00:05:57;15.70;99.90
41395;DHT22;27136;53.810;8.886;2022-07-29T00:08:23;15.70;99.90
41395;DHT22;27136;53.810;8.886;2022-07-29T00:10:49;15.60;99.90
41395;DHT22;27136;53.810;8.886;2022-07-29T00:13:15;15.60;99.90
41395;DHT22;27136;53.810;8.886;2022-07-29T00:15:40;15.50;99.90
41395;DHT22;27136;53.810;8.886;2022-07-29T00:18:06;15.60;99.90
41395;DHT22;27136;53.810;8.886;2022-07-29T00:20:31;15.60;99.90
41395;DHT22;27136;53.810;8.886;2022-07-29T00:22:57;15.60;99.90
41395;DHT22;27136;53.810;8.886;2022-07-29T00:25:23;15.50;99.90
41395;DHT22;27136;53.810;8.886;2022-07-29T00:27:48;15.50;99.90
41395;DHT22;27136;53.810;8.886;2022-07-29T00:30:14;15.40;99.90
41395;DHT22;27136;53.810;8.886;2022-07-29T00:32:40;15.40;99.90
41395;DHT22;27136;53.810;8.886;2022-07-29T00:35:06;15.40;99.90
41395;DHT22;27136;53.810;8.886;2022-07-29T00:37:50;15.30;99.90
41395;DHT22;27136;53.810;8.886;2022-07-29T00:40:16;15.30;99.90
41395;DHT22;27136;53.810;8.886;2022-07-29T00:42:46;15.30;99.90
41395;DHT22;27136;53.810;8.886;2022-07-29T00:45:13;15.20;99.90
41395;DHT22;27136;53.810;8.886;2022-07-29T00:47:38;15.20;99.90
41395;DHT22;27136;53.810;8.886;2022-07-29T00:50:05;15.20;99.90
41395;DHT22;27136;53.810;8.886;2022-07-29T00:52:33;15.20;99.90
41395;DHT22;27136;53.810;8.886;2022-07-29T00:54:58;15.20;99.90
41395;DHT22;27136;53.810;8.886;2022-07-29T00:57:24;15.20;99.90
41395;DHT22;27136;53.810;8.886;2022-07-29T00:59:50;15.20;99.90
41395;DHT22;27136;53.810;8.886;2022-07-29T01:02:15;15.10;99.90
41395;DHT22;27136;53.810;8.886;2022-07-29T01:04:41;15.20;99.90
41395;DHT22;27136;53.810;8.886;2022-07-29T01:07:07;15.10;99.90
41395;DHT22;27136;53.810;8.886;2022-07-29T01:09:33;15.10;99.90
41395;DHT22;27136;53.810;8.886;2022-07-29T01:12:00;15.00;99.90
41395;DHT22;27136;53.810;8.886;2022-07-29T01:14:27;15.10;99.90
41395;DHT22;27136;53.810;8.886;2022-07-29T01:29:16;15.00;99.90
41395;DHT22;27136;53.810;8.886;2022-07-29T01:31:42;14.90;99.90
41395;DHT22;27136;53.810;8.886;2022-07-29T01:34:08;14.90;99.90
41395;DHT22;27136;53.810;8.886;2022-07-29T01:36:43;14.90;99.90
41395;DHT22;27136;53.810;8.886;2022-07-29T01:39:17;14.90;99.90
41395;DHT22;27136;53.810;8.886;2022-07-29T01:41:49;14.90;99.90
41395;DHT22;27136;53.810;8.886;2022-07-29T01:44:25;14.90;99.90
41395;DHT22;27136;53.810;8.886;2022-07-29T01:46:58;14.90;99.90
41395;DHT22;27136;53.810;8.886;2022-07-29T01:49:28;14.90;99.90
41395;DHT22;27136;53.810;8.886;2022-07-29T01:51:59;14.90;99.90
41395;DHT22;27136;53.810;8.886;2022-07-29T01:54:34;14.90;99.90
41395;DHT22;27136;53.810;8.886;2022-07-29T01:57:01;14.90;99.90
41395;DHT22;27136;53.810;8.886;2022-07-29T01:59:28;14.90;99.90
41395;DHT22;27136;53.810;8.886;2022-07-29T02:01:57;14.90;99.90
41395;DHT22;27136;53.810;8.886;2022-07-29T02:04:24;14.90;99.90
41395;DHT22;27136;53.810;8.886;2022-07-29T02:06:52;14.90;99.90
41395;DHT22;27136;53.810;8.886;2022-07-29T02:09:19;14.90;99.90
41395;DHT22;27136;53.810;8.886;2022-07-29T02:11:49;14.90;99.90
41395;DHT22;27136;53.810;8.886;2022-07-29T02:14:18;14.90;99.90
41395;DHT22;27136;53.810;8.886;2022-07-29T02:16:45;14.90;99.90
41395;DHT22;27136;53.810;8.886;2022-07-29T02:19:12;14.90;99.90
41395;DHT22;27136;53.810;8.886;2022-07-29T02:21:40;14.90;99.90
41395;DHT22;27136;53.810;8.886;2022-07-29T02:24:09;14.90;99.90
41395;DHT22;27136;53.810;8.886;2022-07-29T02:26:37;14.90;99.90
41395;DHT22;27136;53.810;8.886;2022-07-29T02:29:03;14.90;99.90
41395;DHT22;27136;53.810;8.886;2022-07-29T02:31:32;14.90;99.90
41395;DHT22;27136;53.810;8.886;2022-07-29T02:34:00;14.90;99.90
41395;DHT22;27136;53.810;8.886;2022-07-29T02:36:27;14.80;99.90
41395;DHT22;27136;53.810;8.886;2022-07-29T02:38:55;14.90;99.90
41395;DHT22;27136;53.810;8.886;2022-07-29T02:41:27;14.90;99.90
41395;DHT22;27136;53.810;8.886;2022-07-29T02:44:01;14.90;99.90
41395;DHT22;27136;53.810;8.886;2022-07-29T02:46:31;14.90;99.90
41395;DHT22;27136;53.810;8.886;2022-07-29T02:49:10;14.90;99.90
41395;DHT22;27136;53.810;8.886;2022-07-29T02:51:58;14.90;99.90
41395;DHT22;27136;53.810;8.886;2022-07-29T02:57:31;14.90;99.90
41395;DHT22;27136;53.810;8.886;2022-07-29T03:00:02;14.80;99.90
41395;DHT22;27136;53.810;8.886;2022-07-29T03:02:34;14.80;99.90
41395;DHT22;27136;53.810;8.886;2022-07-29T03:05:02;14.80;99.90
41395;DHT22;27136;53.810;8.886;2022-07-29T03:07:27;14.80;99.90
41395;DHT22;27136;53.810;8.886;2022-07-29T03:09:54;14.80;99.90
41395;DHT22;27136;53.810;8.886;2022-07-29T03:12:21;14.80;99.90
41395;DHT22;27136;53.810;8.886;2022-07-29T03:14:47;14.80;99.90
41395;DHT22;27136;53.810;8.886;2022-07-29T03:17:14;14.80;99.90
41395;DHT22;27136;53.810;8.886;2022-07-29T03:19:40;14.80;99.90
41395;DHT22;27136;53.810;8.886;2022-07-29T03:22:06;14.90;99.90
41395;DHT22;27136;53.810;8.886;2022-07-29T03:24:35;14.90;99.90
41395;DHT22;27136;53.810;8.886;2022-07-29T03:27:02;14.90;99.90
41395;DHT22;27136;53.810;8.886;2022-07-29T03:29:28;14.90;99.90
41395;DHT22;27136;53.810;8.886;2022-07-29T03:31:54;14.80;99.90
41395;DHT22;27136;53.810;8.886;2022-07-29T03:34:20;14.80;99.90
41395;DHT22;27136;53.810;8.886;2022-07-29T03:36:46;14.90;99.90
41395;DHT22;27136;53.810;8.886;2022-07-29T03:39:20;14.80;99.90
41395;DHT22;27136;53.810;8.886;2022-07-29T03:41:48;14.90;99.90
41395;DHT22;27136;53.810;8.886;2022-07-29T03:44:16;14.90;99.90
41395;DHT22;27136;53.810;8.886;2022-07-29T03:46:43;14.90;99.90
41395;DHT22;27136;53.810;8.886;2022-07-29T03:49:11;14.90;99.90
41395;DHT22;27136;53.810;8.886;2022-07-29T03:51:37;14.90;99.90
41395;DHT22;27136;53.810;8.886;2022-07-29T03:54:03;14.90;99.90
41395;DHT22;27136;53.810;8.886;2022-07-29T03:56:29;14.90;99.90
41395;DHT22;27136;53.810;8.886;2022-07-29T03:58:58;14.90;99.90
41395;DHT22;27136;53.810;8.886;2022-07-29T04:01:24;14.80;99.90
41395;DHT22;27136;53.810;8.886;2022-07-29T04:03:51;14.80;99.90
41395;DHT22;27136;53.810;8.886;2022-07-29T04:06:17;14.90;99.90
41395;DHT22;27136;53.810;8.886;2022-07-29T04:08:42;14.80;99.90
41395;DHT22;27136;53.810;8.886;2022-07-29T04:11:08;14.80;99.90
41395;DHT22;27136;53.810;8.886;2022-07-29T04:13:33;14.80;99.90
41395;DHT22;27136;53.810;8.886;2022-07-29T04:15:59;14.80;99.90
41395;DHT22;27136;53.810;8.886;2022-07-29T04:18:25;14.80;99.90
41395;DHT22;27136;53.810;8.886;2022-07-29T04:20:50;14.80;99.90
41395;DHT22;27136;53.810;8.886;2022-07-29T04:23:16;14.80;99.90
41395;DHT22;27136;53.810;8.886;2022-07-29T04:25:42;14.80;99.90
41395;DHT22;27136;53.810;8.886;2022-07-29T04:28:09;14.80;99.90
41395;DHT22;27136;53.810;8.886;2022-07-29T04:30:35;14.80;99.90
41395;DHT22;27136;53.810;8.886;2022-07-29T04:33:02;14.90;99.90
41395;DHT22;27136;53.810;8.886;2022-07-29T04:35:29;14.80;99.90
41395;DHT22;27136;53.810;8.886;2022-07-29T04:37:54;14.90;99.90
41395;DHT22;27136;53.810;8.886;2022-07-29T04:40:20;14.90;99.90
41395;DHT22;27136;53.810;8.886;2022-07-29T04:42:46;14.90;99.90
41395;DHT22;27136;53.810;8.886;2022-07-29T04:45:12;14.90;99.90
41395;DHT22;27136;53.810;8.886;2022-07-29T04:47:37;14.90;99.90
41395;DHT22;27136;53.810;8.886;2022-07-29T04:50:03;14.90;99.90
41395;DHT22;27136;53.810;8.886;2022-07-29T04:52:30;14.90;99.90
41395;DHT22;27136;53.810;8.886;2022-07-29T04:54:56;14.90;99.90
41395;DHT22;27136;53.810;8.886;2022-07-29T04:57:21;14.90;99.90
41395;DHT22;27136;53.810;8.886;2022-07-29T04:59:47;14.90;99.90
41395;DHT22;27136;53.810;8.886;2022-07-29T05:02:12;14.90;99.90
41395;DHT22;27136;53.810;8.886;2022-07-29T05:04:38;14.90;99.90
41395;DHT22;27136;53.810;8.886;2022-07-29T05:07:03;14.90;99.90
41395;DHT22;27136;53.810;8.886;2022-07-29T05:09:29;14.90;99.90
41395;DHT22;27136;53.810;8.886;2022-07-29T05:11:54;14.90;99.90
41395;DHT22;27136;53.810;8.886;2022-07-29T05:14:20;14.90;99.90
41395;DHT22;27136;53.810;8.886;2022-07-29T05:16:45;15.00;99.90
41395;DHT22;27136;53.810;8.886;2022-07-29T05:19:11;15.00;99.90
41395;DHT22;27136;53.810;8.886;2022-07-29T05:21:36;15.00;99.90
41395;DHT22;27136;53.810;8.886;2022-07-29T05:24:02;15.00;99.90
41395;DHT22;27136;53.810;8.886;2022-07-29T05:26:28;15.00;99.90
41395;DHT22;27136;53.810;8.886;2022-07-29T05:28:53;15.00;99.90
41395;DHT22;27136;53.810;8.886;2022-07-29T05:31:19;15.00;99.90
41395;DHT22;27136;53.810;8.886;2022-07-29T05:33:45;15.00;99.90
41395;DHT22;27136;53.810;8.886;2022-07-29T05:36:10;15.00;99.90
41395;DHT22;27136;53.810;8.886;2022-07-29T05:38:36;15.00;99.90
41395;DHT22;27136;53.810;8.886;2022-07-29T05:41:03;15.10;99.90
41395;DHT22;27136;53.810;8.886;2022-07-29T05:43:29;15.10;99.90
41395;DHT22;27136;53.810;8.886;2022-07-29T05:45:55;15.10;99.90
41395;DHT22;27136;53.810;8.886;2022-07-29T05:48:20;15.10;99.90
41395;DHT22;27136;53.810;8.886;2022-07-29T05:50:46;15.10;99.90
41395;DHT22;27136;53.810;8.886;2022-07-29T05:53:11;15.10;99.90
41395;DHT22;27136;53.810;8.886;2022-07-29T05:55:37;15.20;99.90
41395;DHT22;27136;53.810;8.886;2022-07-29T05:58:02;15.10;99.90
41395;DHT22;27136;53.810;8.886;2022-07-29T06:00:28;15.20;99.90
41395;DHT22;27136;53.810;8.886;2022-07-29T06:02:53;15.20;99.90
41395;DHT22;27136;53.810;8.886;2022-07-29T06:05:19;15.20;99.90
41395;DHT22;27136;53.810;8.886;2022-07-29T06:07:44;15.20;99.90
41395;DHT22;27136;53.810;8.886;2022-07-29T06:10:10;15.20;99.90
41395;DHT22;27136;53.810;8.886;2022-07-29T06:12:36;15.30;99.90
41395;DHT22;27136;53.810;8.886;2022-07-29T06:15:01;15.30;99.90
41395;DHT22;27136;53.810;8.886;2022-07-29T06:17:27;15.30;99.90
41395;DHT22;27136;53.810;8.886;2022-07-29T06:19:53;15.30;99.90
41395;DHT22;27136;53.810;8.886;2022-07-29T06:22:18;15.30;99.90
41395;DHT22;27136;53.810;8.886;2022-07-29T06:24:44;15.40;99.90
41395;DHT22;27136;53.810;8.886;2022-07-29T06:27:11;15.40;99.90
41395;DHT22;27136;53.810;8.886;2022-07-29T06:29:36;15.50;99.90
41395;DHT22;27136;53.810;8.886;2022-07-29T06:32:03;15.50;99.90
41395;DHT22;27136;53.810;8.886;2022-07-29T06:34:28;15.50;99.90
41395;DHT22;27136;53.810;8.886;2022-07-29T06:36:54;15.60;99.90
41395;DHT22;27136;53.810;8.886;2022-07-29T06:39:20;15.60;99.90
41395;DHT22;27136;53.810;8.886;2022-07-29T06:41:49;15.60;99.90
41395;DHT22;27136;53.810;8.886;2022-07-29T06:44:16;15.70;99.90
41395;DHT22;27136;53.810;8.886;2022-07-29T06:46:42;15.70;99.90
41395;DHT22;27136;53.810;8.886;2022-07-29T06:49:07;15.70;99.90
41395;DHT22;27136;53.810;8.886;2022-07-29T06:51:33;15.80;99.90
41395;DHT22;27136;53.810;8.886;2022-07-29T06:53:59;15.80;99.90
41395;DHT22;27136;53.810;8.886;2022-07-29T06:56:26;15.80;99.90
41395;DHT22;27136;53.810;8.886;2022-07-29T06:58:51;15.80;99.90
41395;DHT22;27136;53.810;8.886;2022-07-29T07:01:17;15.90;99.90
41395;DHT22;27136;53.810;8.886;2022-07-29T07:03:42;15.90;99.90
41395;DHT22;27136;53.810;8.886;2022-07-29T07:06:08;15.90;99.90
41395;DHT22;27136;53.810;8.886;2022-07-29T07:08:34;15.90;99.90
41395;DHT22;27136;53.810;8.886;2022-07-29T07:10:59;15.90;99.90
41395;DHT22;27136;53.810;8.886;2022-07-29T07:13:25;16.00;99.90
41395;DHT22;27136;53.810;8.886;2022-07-29T07:15:51;16.00;99.90
41395;DHT22;27136;53.810;8.886;2022-07-29T07:18:17;16.10;99.90
41395;DHT22;27136;53.810;8.886;2022-07-29T07:20:44;16.10;99.90
41395;DHT22;27136;53.810;8.886;2022-07-29T07:23:10;16.20;99.90
41395;DHT22;27136;53.810;8.886;2022-07-29T07:25:36;16.30;99.90
41395;DHT22;27136;53.810;8.886;2022-07-29T07:28:02;16.30;99.90
41395;DHT22;27136;53.810;8.886;2022-07-29T07:30:28;16.40;99.90
41395;DHT22;27136;53.810;8.886;2022-07-29T07:32:54;16.50;99.90
41395;DHT22;27136;53.810;8.886;2022-07-29T07:35:20;16.60;99.90
41395;DHT22;27136;53.810;8.886;2022-07-29T07:37:46;16.70;99.90
41395;DHT22;27136;53.810;8.886;2022-07-29T07:40:12;16.80;99.90
41395;DHT22;27136;53.810;8.886;2022-07-29T07:42:39;16.80;99.90
41395;DHT22;27136;53.810;8.886;2022-07-29T07:45:05;16.90;99.90
41395;DHT22;27136;53.810;8.886;2022-07-29T07:47:31;17.00;99.90
41395;DHT22;27136;53.810;8.886;2022-07-29T07:49:57;17.10;99.90
41395;DHT22;27136;53.810;8.886;2022-07-29T07:52:24;17.10;99.90
41395;DHT22;27136;53.810;8.886;2022-07-29T07:54:49;17.20;99.90
41395;DHT22;27136;53.810;8.886;2022-07-29T07:57:15;17.30;99.90
41395;DHT22;27136;53.810;8.886;2022-07-29T07:59:41;17.30;99.90
41395;DHT22;27136;53.810;8.886;2022-07-29T08:02:07;17.40;99.90
41395;DHT22;27136;53.810;8.886;2022-07-29T08:04:32;17.50;99.90
41395;DHT22;27136;53.810;8.886;2022-07-29T08:07:00;17.50;99.90
41395;DHT22;27136;53.810;8.886;2022-07-29T08:09:26;17.60;99.90
41395;DHT22;27136;53.810;8.886;2022-07-29T08:11:52;17.60;99.90
41395;DHT22;27136;53.810;8.886;2022-07-29T08:14:18;17.70;99.90
41395;DHT22;27136;53.810;8.886;2022-07-29T08:16:44;17.70;99.90
41395;DHT22;27136;53.810;8.886;2022-07-29T08:19:10;17.80;99.90
41395;DHT22;27136;53.810;8.886;2022-07-29T08:21:36;17.80;99.90
41395;DHT22;27136;53.810;8.886;2022-07-29T08:24:02;17.80;99.90
41395;DHT22;27136;53.810;8.886;2022-07-29T08:26:46;17.90;99.90
41395;DHT22;27136;53.810;8.886;2022-07-29T08:29:12;17.90;99.90
41395;DHT22;27136;53.810;8.886;2022-07-29T08:31:38;17.90;99.90
41395;DHT22;27136;53.810;8.886;2022-07-29T08:34:05;18.00;99.90
41395;DHT22;27136;53.810;8.886;2022-07-29T08:36:31;18.00;99.90
41395;DHT22;27136;53.810;8.886;2022-07-29T08:38:57;18.10;99.90
41395;DHT22;27136;53.810;8.886;2022-07-29T08:41:23;18.10;99.90
41395;DHT22;27136;53.810;8.886;2022-07-29T08:43:50;18.10;99.90
41395;DHT22;27136;53.810;8.886;2022-07-29T08:46:17;18.20;99.90
41395;DHT22;27136;53.810;8.886;2022-07-29T08:48:43;18.20;99.90
41395;DHT22;27136;53.810;8.886;2022-07-29T08:51:13;18.20;99.90
41395;DHT22;27136;53.810;8.886;2022-07-29T08:53:41;18.30;99.90
41395;DHT22;27136;53.810;8.886;2022-07-29T08:56:11;18.30;99.90
41395;DHT22;27136;53.810;8.886;2022-07-29T08:58:38;18.40;99.90
41395;DHT22;27136;53.810;8.886;2022-07-29T09:01:04;18.40;99.90
41395;DHT22;27136;53.810;8.886;2022-07-29T09:03:31;18.50;99.90
41395;DHT22;27136;53.810;8.886;2022-07-29T09:05:58;18.50;99.90
41395;DHT22;27136;53.810;8.886;2022-07-29T09:08:25;18.50;99.90
41395;DHT22;27136;53.810;8.886;2022-07-29T09:10:51;18.50;99.90
41395;DHT22;27136;53.810;8.886;2022-07-29T09:13:17;18.60;99.90
41395;DHT22;27136;53.810;8.886;2022-07-29T09:15:43;18.70;99.90
41395;DHT22;27136;53.810;8.886;2022-07-29T09:18:09;18.80;99.90
41395;DHT22;27136;53.810;8.886;2022-07-29T09:20:35;18.80;99.90
41395;DHT22;27136;53.810;8.886;2022-07-29T09:23:19;18.90;99.90
41395;DHT22;27136;53.810;8.886;2022-07-29T09:25:45;19.00;99.90
41395;DHT22;27136;53.810;8.886;2022-07-29T09:28:16;19.00;99.90
41395;DHT22;27136;53.810;8.886;2022-07-29T09:30:55;19.10;99.90
41395;DHT22;27136;53.810;8.886;2022-07-29T09:33:23;19.10;99.90
41395;DHT22;27136;53.810;8.886;2022-07-29T09:36:05;19.20;99.90
41395;DHT22;27136;53.810;8.886;2022-07-29T09:38:32;19.20;99.90
41395;DHT22;27136;53.810;8.886;2022-07-29T09:41:00;19.30;99.90
41395;DHT22;27136;53.810;8.886;2022-07-29T09:43:26;19.40;99.90
41395;DHT22;27136;53.810;8.886;2022-07-29T09:45:51;19.40;99.90
41395;DHT22;27136;53.810;8.886;2022-07-29T09:48:19;19.50;99.90
41395;DHT22;27136;53.810;8.886;2022-07-29T09:50:45;19.50;99.90
41395;DHT22;27136;53.810;8.886;2022-07-29T09:53:35;19.50;99.90
41395;DHT22;27136;53.810;8.886;2022-07-29T09:55:59;19.60;99.90
41395;DHT22;27136;53.810;8.886;2022-07-29T09:58:25;19.70;99.90
41395;DHT22;27136;53.810;8.886;2022-07-29T10:00:52;19.70;99.90
41395;DHT22;27136;53.810;8.886;2022-07-29T10:03:18;19.70;99.90
41395;DHT22;27136;53.810;8.886;2022-07-29T10:05:45;19.80;99.90
41395;DHT22;27136;53.810;8.886;2022-07-29T10:08:11;19.80;99.90
41395;DHT22;27136;53.810;8.886;2022-07-29T10:10:41;19.90;99.90
41395;DHT22;27136;53.810;8.886;2022-07-29T10:13:09;20.00;99.90
41395;DHT22;27136;53.810;8.886;2022-07-29T10:15:37;20.00;99.90
41395;DHT22;27136;53.810;8.886;2022-07-29T10:18:05;20.10;99.90
41395;DHT22;27136;53.810;8.886;2022-07-29T10:20:31;20.10;99.90
41395;DHT22;27136;53.810;8.886;2022-07-29T10:22:56;20.20;99.90
41395;DHT22;27136;53.810;8.886;2022-07-29T10:25:23;20.20;99.90
41395;DHT22;27136;53.810;8.886;2022-07-29T10:27:50;20.30;99.90
41395;DHT22;27136;53.810;8.886;2022-07-29T10:30:20;20.40;99.90
41395;DHT22;27136;53.810;8.886;2022-07-29T10:38:43;20.50;99.90
41395;DHT22;27136;53.810;8.886;2022-07-29T10:44:24;20.70;99.90
41395;DHT22;27136;53.810;8.886;2022-07-29T10:46:51;20.70;99.90
41395;DHT22;27136;53.810;8.886;2022-07-29T10:49:22;20.80;99.90
41395;DHT22;27136;53.810;8.886;2022-07-29T10:52:01;20.90;99.90
41395;DHT22;27136;53.810;8.886;2022-07-29T10:54:37;20.90;99.90
41395;DHT22;27136;53.810;8.886;2022-07-29T10:57:16;21.00;99.90
41395;DHT22;27136;53.810;8.886;2022-07-29T10:59:44;21.10;99.90
41395;DHT22;27136;53.810;8.886;2022-07-29T11:07:27;21.40;99.90
41395;DHT22;27136;53.810;8.886;2022-07-29T11:15:08;21.70;99.90
41395;DHT22;27136;53.810;8.886;2022-07-29T11:22:56;21.90;99.90
41395;DHT22;27136;53.810;8.886;2022-07-29T11:25:22;21.90;99.90
41395;DHT22;27136;53.810;8.886;2022-07-29T11:27:49;22.00;99.90
41395;DHT22;27136;53.810;8.886;2022-07-29T11:30:14;22.00;99.90
41395;DHT22;27136;53.810;8.886;2022-07-29T11:32:44;22.00;99.90
41395;DHT22;27136;53.810;8.886;2022-07-29T11:35:15;22.10;99.90
41395;DHT22;27136;53.810;8.886;2022-07-29T11:37:41;22.30;99.90
41395;DHT22;27136;53.810;8.886;2022-07-29T11:45:01;22.50;99.90
41395;DHT22;27136;53.810;8.886;2022-07-29T11:47:28;22.50;99.90
41395;DHT22;27136;53.810;8.886;2022-07-29T11:49:56;22.50;99.90
41395;DHT22;27136;53.810;8.886;2022-07-29T11:52:23;22.50;99.90
41395;DHT22;27136;53.810;8.886;2022-07-29T11:54:50;22.60;99.90
41395;DHT22;27136;53.810;8.886;2022-07-29T11:57:20;22.50;99.90
41395;DHT22;27136;53.810;8.886;2022-07-29T11:59:46;22.50;99.90
41395;DHT22;27136;53.810;8.886;2022-07-29T12:02:14;22.50;99.90
41395;DHT22;27136;53.810;8.886;2022-07-29T12:04:50;22.60;99.90
41395;DHT22;27136;53.810;8.886;2022-07-29T12:07:16;22.70;99.90
41395;DHT22;27136;53.810;8.886;2022-07-29T12:09:52;22.80;99.90
41395;DHT22;27136;53.810;8.886;2022-07-29T12:12:19;22.90;99.90
41395;DHT22;27136;53.810;8.886;2022-07-29T12:14:44;22.90;99.90
41395;DHT22;27136;53.810;8.886;2022-07-29T12:17:25;23.10;99.90
41395;DHT22;27136;53.810;8.886;2022-07-29T12:19:53;23.20;99.90
41395;DHT22;27136;53.810;8.886;2022-07-29T12:22:39;23.50;99.90
41395;DHT22;27136;53.810;8.886;2022-07-29T12:25:07;23.60;99.90
41395;DHT22;27136;53.810;8.886;2022-07-29T12:27:33;23.80;99.90
41395;DHT22;27136;53.810;8.886;2022-07-29T12:30:02;23.90;99.90
41395;DHT22;27136;53.810;8.886;2022-07-29T12:35:17;24.10;99.90
41395;DHT22;27136;53.810;8.886;2022-07-29T12:37:46;24.20;99.90
41395;DHT22;27136;53.810;8.886;2022-07-29T12:40:14;24.20;99.90
41395;DHT22;27136;53.810;8.886;2022-07-29T12:42:42;24.20;99.90
41395;DHT22;27136;53.810;8.886;2022-07-29T12:45:30;24.10;99.90
41395;DHT22;27136;53.810;8.886;2022-07-29T12:47:56;24.00;99.90
41395;DHT22;27136;53.810;8.886;2022-07-29T12:50:22;23.70;99.90
41395;DHT22;27136;53.810;8.886;2022-07-29T12:52:48;23.80;99.90
41395;DHT22;27136;53.810;8.886;2022-07-29T12:55:14;23.90;99.90
41395;DHT22;27136;53.810;8.886;2022-07-29T12:57:46;23.90;99.90
41395;DHT22;27136;53.810;8.886;2022-07-29T13:00:13;23.90;99.90
41395;DHT22;27136;53.810;8.886;2022-07-29T13:02:40;24.00;99.90
41395;DHT22;27136;53.810;8.886;2022-07-29T13:05:08;24.20;99.90
41395;DHT22;27136;53.810;8.886;2022-07-29T13:07:35;24.30;99.50
41395;DHT22;27136;53.810;8.886;2022-07-29T13:10:11;24.10;98.60
41395;DHT22;27136;53.810;8.886;2022-07-29T13:12:37;23.90;99.30
41395;DHT22;27136;53.810;8.886;2022-07-29T13:15:16;23.90;99.90
41395;DHT22;27136;53.810;8.886;2022-07-29T13:17:42;24.00;99.80
41395;DHT22;27136;53.810;8.886;2022-07-29T13:20:11;24.00;99.70
41395;DHT22;27136;53.810;8.886;2022-07-29T13:22:47;24.10;99.90
41395;DHT22;27136;53.810;8.886;2022-07-29T13:25:13;24.40;99.70
41395;DHT22;27136;53.810;8.886;2022-07-29T13:27:39;24.40;99.90
41395;DHT22;27136;53.810;8.886;2022-07-29T13:30:10;24.50;99.70
41395;DHT22;27136;53.810;8.886;2022-07-29T13:32:36;24.70;98.90
41395;DHT22;27136;53.810;8.886;2022-07-29T13:35:05;24.80;99.90
41395;DHT22;27136;53.810;8.886;2022-07-29T13:37:33;25.00;98.70
41395;DHT22;27136;53.810;8.886;2022-07-29T13:40:00;25.10;99.20
41395;DHT22;27136;53.810;8.886;2022-07-29T13:42:28;25.00;97.90
41395;DHT22;27136;53.810;8.886;2022-07-29T13:44:53;25.10;99.20
41395;DHT22;27136;53.810;8.886;2022-07-29T13:47:20;25.00;97.10
41395;DHT22;27136;53.810;8.886;2022-07-29T13:49:46;25.00;98.00
41395;DHT22;27136;53.810;8.886;2022-07-29T13:52:11;25.00;97.60
41395;DHT22;27136;53.810;8.886;2022-07-29T13:54:37;25.00;97.40
41395;DHT22;27136;53.810;8.886;2022-07-29T13:57:04;25.10;98.40
41395;DHT22;27136;53.810;8.886;2022-07-29T13:59:29;25.20;97.30
41395;DHT22;27136;53.810;8.886;2022-07-29T14:01:55;25.30;98.50
41395;DHT22;27136;53.810;8.886;2022-07-29T14:04:21;25.30;97.90
41395;DHT22;27136;53.810;8.886;2022-07-29T14:06:48;25.30;98.90
41395;DHT22;27136;53.810;8.886;2022-07-29T14:09:14;25.30;98.50
41395;DHT22;27136;53.810;8.886;2022-07-29T14:11:39;25.40;98.60
41395;DHT22;27136;53.810;8.886;2022-07-29T14:14:05;25.50;98.40
41395;DHT22;27136;53.810;8.886;2022-07-29T14:16:31;25.50;98.40
41395;DHT22;27136;53.810;8.886;2022-07-29T14:18:56;25.50;98.20
41395;DHT22;27136;53.810;8.886;2022-07-29T14:21:22;25.50;98.20
41395;DHT22;27136;53.810;8.886;2022-07-29T14:23:48;25.50;97.90
41395;DHT22;27136;53.810;8.886;2022-07-29T14:26:13;25.50;97.00
41395;DHT22;27136;53.810;8.886;2022-07-29T14:28:39;25.40;98.60
41395;DHT22;27136;53.810;8.886;2022-07-29T14:31:05;25.50;98.60
41395;DHT22;27136;53.810;8.886;2022-07-29T14:33:30;25.50;99.40
41395;DHT22;27136;53.810;8.886;2022-07-29T14:35:56;25.60;98.60
41395;DHT22;27136;53.810;8.886;2022-07-29T14:38:21;25.70;99.20
41395;DHT22;27136;53.810;8.886;2022-07-29T14:40:47;25.70;98.70
41395;DHT22;27136;53.810;8.886;2022-07-29T14:43:13;25.70;99.70
41395;DHT22;27136;53.810;8.886;2022-07-29T14:45:40;25.70;98.80
41395;DHT22;27136;53.810;8.886;2022-07-29T14:48:05;25.70;98.10
41395;DHT22;27136;53.810;8.886;2022-07-29T14:50:31;25.70;97.50
41395;DHT22;27136;53.810;8.886;2022-07-29T14:52:57;25.70;99.10
41395;DHT22;27136;53.810;8.886;2022-07-29T14:55:22;25.60;98.70
41395;DHT22;27136;53.810;8.886;2022-07-29T14:57:48;25.60;97.50
41395;DHT22;27136;53.810;8.886;2022-07-29T15:00:15;25.50;99.30
41395;DHT22;27136;53.810;8.886;2022-07-29T15:02:41;25.50;97.80
41395;DHT22;27136;53.810;8.886;2022-07-29T15:05:07;25.50;98.60
41395;DHT22;27136;53.810;8.886;2022-07-29T15:07:32;25.50;98.00
41395;DHT22;27136;53.810;8.886;2022-07-29T15:09:58;25.30;97.90
41395;DHT22;27136;53.810;8.886;2022-07-29T15:12:23;25.30;98.20
41395;DHT22;27136;53.810;8.886;2022-07-29T15:14:49;25.40;98.10
41395;DHT22;27136;53.810;8.886;2022-07-29T15:17:14;25.30;98.20
41395;DHT22;27136;53.810;8.886;2022-07-29T15:19:40;25.40;98.50
41395;DHT22;27136;53.810;8.886;2022-07-29T15:22:06;25.40;97.60
41395;DHT22;27136;53.810;8.886;2022-07-29T15:24:31;25.40;97.10
41395;DHT22;27136;53.810;8.886;2022-07-29T15:26:57;25.30;97.40
41395;DHT22;27136;53.810;8.886;2022-07-29T15:29:22;25.30;98.70
41395;DHT22;27136;53.810;8.886;2022-07-29T15:31:48;25.40;98.50
41395;DHT22;27136;53.810;8.886;2022-07-29T15:34:14;25.40;97.80
41395;DHT22;27136;53.810;8.886;2022-07-29T15:36:40;25.50;97.70
41395;DHT22;27136;53.810;8.886;2022-07-29T15:39:05;25.50;96.80
41395;DHT22;27136;53.810;8.886;2022-07-29T15:41:31;25.50;96.80
41395;DHT22;27136;53.810;8.886;2022-07-29T15:43:56;25.60;96.30
41395;DHT22;27136;53.810;8.886;2022-07-29T15:46:22;25.60;97.40
41395;DHT22;27136;53.810;8.886;2022-07-29T15:49:06;25.80;96.90
41395;DHT22;27136;53.810;8.886;2022-07-29T15:51:32;25.90;98.40
41395;DHT22;27136;53.810;8.886;2022-07-29T15:53:59;26.00;97.80
41395;DHT22;27136;53.810;8.886;2022-07-29T15:56:25;26.00;96.80
41395;DHT22;27136;53.810;8.886;2022-07-29T15:58:51;25.90;97.20
41395;DHT22;27136;53.810;8.886;2022-07-29T16:01:16;25.80;95.80
41395;DHT22;27136;53.810;8.886;2022-07-29T16:03:42;25.80;96.80
41395;DHT22;27136;53.810;8.886;2022-07-29T16:06:08;25.80;97.00
41395;DHT22;27136;53.810;8.886;2022-07-29T16:08:34;25.70;96.60
41395;DHT22;27136;53.810;8.886;2022-07-29T16:10:59;25.70;96.60
41395;DHT22;27136;53.810;8.886;2022-07-29T16:13:25;25.80;98.30
41395;DHT22;27136;53.810;8.886;2022-07-29T16:15:50;25.80;97.70
41395;DHT22;27136;53.810;8.886;2022-07-29T16:18:16;25.70;97.20